Time;durP1;ratioP1;P1;durP2;ratioP2;P2;SDS_P1;SDS_P2;PMS_P1;PMS_P2;Temp;Humidity;BMP_temperature;BMP_pressure;BME280_temperature;BME280_humidity;BME280_pressure;Samples;Min_cycle;Max_cycle;Signal;HPM_P1;HPM_P2
2022/09/12 00:02:03;;;;;;;6.28;4.78;;;8.50;99.90;;;;;;8343300;28;20147;-81
2022/09/12 00:06:10;;;;;;;8.45;5.38;;;8.50;99.90;;;;;;8328264;28;20186;-81
2022/09/12 00:10:10;;;;;;;9.52;6.00;;;8.50;99.90;;;;;;8337569;28;20025;-81
2022/09/12 00:14:15;;;;;;;8.15;5.32;;;8.50;99.90;;;;;;8326371;28;20107;-81
2022/09/12 00:18:16;;;;;;;6.50;4.28;;;8.50;99.90;;;;;;8348691;28;20260;-81
2022/09/12 00:22:16;;;;;;;9.48;5.47;;;8.50;99.90;;;;;;8334758;28;20082;-79
2022/09/12 00:26:18;;;;;;;6.38;4.57;;;8.50;99.90;;;;;;8334237;28;20048;-81
2022/09/12 00:30:19;;;;;;;8.65;5.20;;;8.30;99.90;;;;;;8343792;28;20495;-79
2022/09/12 00:34:19;;;;;;;71.90;6.43;;;8.30;99.90;;;;;;8336961;28;20013;-79
2022/09/12 00:38:20;;;;;;;15.13;5.22;;;8.30;99.90;;;;;;8358345;28;20036;-81
2022/09/12 00:42:21;;;;;;;16.35;5.88;;;8.20;99.90;;;;;;8327626;28;20021;-79
2022/09/12 00:46:36;;;;;;;11.05;5.35;;;8.20;99.90;;;;;;8340706;28;20059;-80
2022/09/12 00:50:36;;;;;;;17.08;5.40;;;8.30;99.90;;;;;;8333594;28;20021;-80
2022/09/12 00:54:47;;;;;;;19.70;6.00;;;8.40;99.90;;;;;;8342498;28;20053;-80
2022/09/12 00:59:09;;;;;;;21.52;5.45;;;8.80;99.90;;;;;;8332456;28;20108;-80
2022/09/12 01:03:13;;;;;;;11.50;5.25;;;8.80;99.90;;;;;;8343991;28;20022;-80
2022/09/12 01:07:15;;;;;;;11.32;4.88;;;8.90;99.90;;;;;;8343184;28;20028;-80
2022/09/12 01:11:17;;;;;;;18.48;4.40;;;9.10;99.90;;;;;;8333765;28;20494;-80
2022/09/12 01:15:17;;;;;;;6.43;4.95;;;9.10;99.90;;;;;;8351930;28;20025;-80
2022/09/12 01:19:56;;;;;;;10.88;4.32;;;9.00;99.90;;;;;;8334868;28;20025;-78
2022/09/12 01:24:09;;;;;;;15.88;4.13;;;8.70;99.90;;;;;;8344841;28;20437;-80
2022/09/12 01:28:31;;;;;;;11.13;4.10;;;8.50;99.90;;;;;;8346343;28;20021;-80
2022/09/12 01:33:17;;;;;;;6.53;3.95;;;8.20;99.90;;;;;;8329770;28;20095;-79
2022/09/12 01:37:37;;;;;;;8.80;4.45;;;8.10;99.90;;;;;;8236669;28;20587;-79
2022/09/12 01:41:51;;;;;;;8.73;3.80;;;7.90;99.90;;;;;;8300104;28;20459;-78
2022/09/12 01:46:01;;;;;;;5.75;4.35;;;7.60;99.90;;;;;;8333885;28;20017;-79
2022/09/12 01:50:06;;;;;;;19.40;4.63;;;7.60;99.90;;;;;;8336033;28;20471;-78
2022/09/12 01:54:17;;;;;;;8.55;4.65;;;7.50;99.90;;;;;;8327266;28;20052;-80
2022/09/12 01:58:22;;;;;;;;;;;7.70;99.90;;;;;;8348010;28;20028;-80
2022/09/12 02:02:37;;;;;;;9.20;4.63;;;7.70;99.90;;;;;;8342274;28;19970;-80
2022/09/12 02:06:46;;;;;;;9.35;4.82;;;7.70;99.90;;;;;;8334275;28;20021;-80
2022/09/12 02:10:53;;;;;;;10.52;4.80;;;7.70;99.90;;;;;;8322882;28;20631;-79
2022/09/12 02:15:01;;;;;;;7.13;4.72;;;7.70;99.90;;;;;;8320772;28;20017;-79
2022/09/12 02:19:14;;;;;;;11.20;5.10;;;7.70;99.90;;;;;;8358957;28;20091;-80
2022/09/12 02:23:21;;;;;;;7.50;5.03;;;7.80;99.90;;;;;;8349795;28;20024;-80
2022/09/12 02:27:24;;;;;;;8.15;4.68;;;7.70;99.90;;;;;;8323970;28;20032;-80
2022/09/12 02:31:36;;;;;;;7.65;4.43;;;7.70;99.90;;;;;;8351878;28;20028;-78
2022/09/12 02:35:48;;;;;;;7.55;3.97;;;7.60;99.90;;;;;;8347987;28;20021;-80
2022/09/12 02:39:49;;;;;;;6.72;4.35;;;7.50;99.90;;;;;;8328815;28;20467;-80
2022/09/12 02:43:51;;;;;;;5.50;3.67;;;7.40;99.90;;;;;;8320354;28;20033;-80
2022/09/12 02:47:58;;;;;;;9.70;4.35;;;7.20;99.90;;;;;;8325800;28;20028;-80
2022/09/12 02:52:00;;;;;;;7.57;4.03;;;7.20;99.90;;;;;;8350945;22;20555;-92
2022/09/12 02:56:01;;;;;;;35.15;4.90;;;7.20;99.90;;;;;;8311963;28;20112;-93
2022/09/12 03:00:03;;;;;;;23.65;4.93;;;7.10;99.90;;;;;;8299692;28;20032;-92
2022/09/12 03:04:29;;;;;;;12.20;4.55;;;7.10;99.90;;;;;;8295750;28;20025;-91
2022/09/12 03:09:23;;;;;;;10.38;4.95;;;7.00;99.90;;;;;;8361594;23;20047;-81
2022/09/12 03:13:29;;;;;;;48.08;5.32;;;7.00;99.90;;;;;;8253845;28;20052;-82
2022/09/12 03:17:45;;;;;;;16.95;4.40;;;7.00;99.90;;;;;;8372179;22;20510;-80
2022/09/12 03:22:06;;;;;;;10.20;3.55;;;7.10;99.90;;;;;;8298821;28;20034;-79
2022/09/12 03:26:22;;;;;;;27.02;3.83;;;7.10;99.90;;;;;;8295215;28;20021;-79
2022/09/12 03:30:22;;;;;;;40.42;4.65;;;7.30;99.90;;;;;;8300179;28;20411;-79
2022/09/12 03:34:26;;;;;;;48.15;5.00;;;7.40;99.90;;;;;;8288245;28;20029;-78
2022/09/12 03:38:26;;;;;;;22.90;3.65;;;7.30;99.90;;;;;;8287786;28;20116;-78
2022/09/12 03:42:27;;;;;;;19.98;4.90;;;7.50;99.90;;;;;;8303940;28;20018;-79
2022/09/12 03:46:27;;;;;;;35.80;5.43;;;7.40;99.90;;;;;;8287465;28;20112;-79
2022/09/12 03:50:28;;;;;;;17.52;4.30;;;7.30;99.90;;;;;;8297516;28;20062;-78
2022/09/12 03:54:28;;;;;;;24.35;4.82;;;7.30;99.90;;;;;;8311233;28;20398;-79
2022/09/12 03:58:30;;;;;;;17.50;4.20;;;7.10;99.90;;;;;;8299884;28;20113;-79
2022/09/12 04:02:30;;;;;;;6.75;4.38;;;7.00;99.90;;;;;;8295188;28;20510;-78
2022/09/12 04:06:31;;;;;;;6.03;4.00;;;6.80;99.90;;;;;;8297051;28;20024;-80
2022/09/12 04:10:32;;;;;;;9.15;4.32;;;6.80;99.90;;;;;;8294364;28;20284;-79
2022/09/12 04:14:32;;;;;;;13.77;4.88;;;6.70;99.90;;;;;;8308830;28;20538;-80
2022/09/12 04:18:33;;;;;;;13.15;4.63;;;6.80;99.90;;;;;;8305441;28;20048;-80
2022/09/12 04:22:34;;;;;;;7.68;4.53;;;6.70;99.90;;;;;;8312847;28;20026;-80
2022/09/12 04:26:35;;;;;;;6.72;4.38;;;6.60;99.90;;;;;;8296148;28;20116;-80
2022/09/12 04:30:35;;;;;;;6.00;3.60;;;6.50;99.90;;;;;;8302940;28;20061;-80
2022/09/12 04:34:36;;;;;;;7.25;4.10;;;6.40;99.90;;;;;;8304435;28;20029;-79
2022/09/12 04:38:37;;;;;;;6.43;3.97;;;6.20;99.90;;;;;;8308225;28;20076;-80
2022/09/12 04:42:37;;;;;;;7.05;4.22;;;6.10;99.90;;;;;;8297447;28;20034;-79
2022/09/12 04:46:40;;;;;;;7.55;4.30;;;6.10;99.90;;;;;;8303628;28;20222;-79
2022/09/12 04:50:41;;;;;;;6.88;4.22;;;6.20;99.90;;;;;;8313482;28;20439;-80
2022/09/12 04:54:41;;;;;;;8.82;4.28;;;6.40;99.90;;;;;;8300175;28;20183;-80
2022/09/12 04:58:42;;;;;;;6.18;3.83;;;6.30;99.90;;;;;;8312291;28;20075;-79
2022/09/12 05:02:43;;;;;;;6.18;3.88;;;6.30;99.90;;;;;;8319158;28;20419;-79
2022/09/12 05:06:45;;;;;;;6.10;4.20;;;6.20;99.90;;;;;;8295644;28;20024;-80
2022/09/12 05:10:46;;;;;;;7.30;3.97;;;6.20;99.90;;;;;;8312477;28;20068;-80
2022/09/12 05:14:46;;;;;;;6.65;3.83;;;6.20;99.90;;;;;;8293261;28;20037;-79
2022/09/12 05:18:47;;;;;;;4.95;3.35;;;6.20;99.90;;;;;;8295214;28;20567;-79
2022/09/12 05:22:48;;;;;;;6.10;3.90;;;6.30;99.90;;;;;;8291095;28;20038;-79
2022/09/12 05:26:48;;;;;;;7.13;4.25;;;6.50;99.90;;;;;;8293496;28;20026;-80
2022/09/12 05:31:12;;;;;;;8.57;4.05;;;6.50;99.90;;;;;;8311054;28;20022;-79
2022/09/12 05:35:13;;;;;;;8.98;4.70;;;6.70;99.90;;;;;;8291912;28;20037;-80
2022/09/12 05:39:13;;;;;;;6.13;4.45;;;6.70;99.90;;;;;;8312374;28;20308;-80
2022/09/12 05:43:14;;;;;;;5.55;4.18;;;7.00;99.90;;;;;;8322281;28;20034;-79
2022/09/12 05:47:16;;;;;;;6.53;4.35;;;7.10;99.90;;;;;;8289758;28;20026;-79
2022/09/12 05:51:20;;;;;;;12.60;5.20;;;7.30;99.90;;;;;;8296782;28;20022;-80
2022/09/12 05:55:21;;;;;;;8.48;5.28;;;7.40;99.90;;;;;;8304292;28;20079;-79
2022/09/12 05:59:22;;;;;;;26.00;5.00;;;7.60;99.90;;;;;;8305523;28;20021;-80
2022/09/12 06:03:23;;;;;;;6.88;4.88;;;7.60;99.90;;;;;;8289210;28;20029;-79
2022/09/12 06:07:24;;;;;;;16.73;4.43;;;7.90;99.90;;;;;;8302819;28;20048;-80
2022/09/12 06:11:27;;;;;;;7.70;4.07;;;8.10;99.90;;;;;;8293765;28;20479;-80
2022/09/12 06:15:27;;;;;;;5.82;4.18;;;8.00;99.90;;;;;;8290733;28;20124;-79
2022/09/12 06:19:28;;;;;;;9.80;4.30;;;8.00;99.90;;;;;;8313345;28;20033;-79
2022/09/12 06:23:29;;;;;;;4.93;3.90;;;8.10;99.90;;;;;;8294535;28;20025;-80
2022/09/12 06:27:29;;;;;;;5.38;3.97;;;8.10;99.90;;;;;;8296192;28;20071;-78
2022/09/12 06:31:33;;;;;;;5.68;3.83;;;8.10;99.90;;;;;;8316072;28;20664;-80
2022/09/12 06:35:37;;;;;;;5.32;4.40;;;8.30;99.90;;;;;;8318973;28;20101;-78
2022/09/12 06:39:38;;;;;;;6.20;3.83;;;8.50;99.90;;;;;;8281857;28;20026;-79
2022/09/12 06:43:40;;;;;;;4.88;3.92;;;8.80;99.90;;;;;;8310725;28;20522;-80
2022/09/12 06:47:40;;;;;;;5.43;4.10;;;8.90;99.90;;;;;;8297194;28;20032;-78
2022/09/12 06:51:41;;;;;;;7.25;4.45;;;9.00;99.90;;;;;;8311665;28;20026;-78
2022/09/12 06:55:41;;;;;;;9.52;4.68;;;9.30;99.90;;;;;;8309236;28;20345;-80
2022/09/12 06:59:42;;;;;;;6.65;4.72;;;9.50;99.90;;;;;;8309656;28;20045;-79
2022/09/12 07:03:55;;;;;;;6.63;4.38;;;9.80;99.90;;;;;;8283814;28;20046;-80
2022/09/12 07:07:56;;;;;;;4.80;3.97;;;10.00;99.90;;;;;;8311510;28;20025;-80
2022/09/12 07:11:56;;;;;;;4.80;4.15;;;10.10;99.90;;;;;;8294031;28;20022;-80
2022/09/12 07:16:01;;;;;;;5.80;4.05;;;10.40;99.90;;;;;;8306155;28;20010;-79
2022/09/12 07:20:01;;;;;;;5.88;4.07;;;10.60;99.90;;;;;;8310620;28;20057;-80
2022/09/12 07:24:02;;;;;;;4.30;3.67;;;10.80;99.90;;;;;;8299192;28;20491;-80
2022/09/12 07:28:03;;;;;;;7.95;4.50;;;11.00;99.90;;;;;;8301652;28;20025;-79
2022/09/12 07:32:04;;;;;;;4.22;3.13;;;11.30;99.90;;;;;;8300074;28;20399;-80
2022/09/12 07:36:10;;;;;;;2.70;2.50;;;11.70;99.90;;;;;;8308823;28;20488;-81
2022/09/12 07:40:11;;;;;;;2.40;2.03;;;11.90;99.90;;;;;;8301828;28;20109;-81
2022/09/12 07:44:11;;;;;;;3.20;1.90;;;12.20;99.90;;;;;;8295794;28;20028;-81
2022/09/12 07:48:12;;;;;;;2.35;1.88;;;12.30;99.90;;;;;;8315120;28;20030;-80
2022/09/12 07:52:13;;;;;;;2.10;1.90;;;12.60;99.90;;;;;;8313129;28;20123;-81
2022/09/12 07:56:14;;;;;;;2.08;1.58;;;12.90;99.90;;;;;;8312761;28;20014;-80
2022/09/12 08:00:15;;;;;;;4.53;2.15;;;13.10;99.90;;;;;;8295899;28;20044;-80
2022/09/12 08:04:16;;;;;;;4.25;1.45;;;13.40;99.90;;;;;;8300201;28;20024;-80
2022/09/12 08:08:17;;;;;;;1.77;1.30;;;13.80;99.90;;;;;;8295749;28;20026;-79
2022/09/12 08:12:19;;;;;;;1.98;1.40;;;14.00;99.90;;;;;;8310694;28;20096;-80
2022/09/12 08:16:21;;;;;;;1.45;0.90;;;14.30;99.90;;;;;;8296147;28;20026;-80
2022/09/12 08:20:22;;;;;;;1.20;1.10;;;14.60;99.90;;;;;;8312343;28;20087;-79
2022/09/12 08:24:23;;;;;;;0.82;0.80;;;14.80;99.90;;;;;;8282068;28;20021;-80
2022/09/12 08:28:25;;;;;;;1.10;1.00;;;15.10;99.90;;;;;;8316116;28;20209;-81
2022/09/12 08:32:25;;;;;;;1.08;0.80;;;15.50;99.90;;;;;;8308239;28;20022;-81
2022/09/12 08:36:27;;;;;;;0.95;0.68;;;15.90;99.90;;;;;;8299459;28;20026;-80
2022/09/12 08:40:27;;;;;;;0.88;0.60;;;16.40;99.90;;;;;;8316794;28;20072;-80
2022/09/12 08:44:46;;;;;;;0.60;0.60;;;16.60;99.90;;;;;;8311441;28;20061;-81
2022/09/12 08:48:47;;;;;;;0.60;0.52;;;16.90;99.90;;;;;;8293332;28;20065;-80
2022/09/12 08:52:48;;;;;;;2.58;0.82;;;17.50;99.90;;;;;;8298088;28;20504;-81
2022/09/12 08:56:49;;;;;;;1.08;0.80;;;18.10;99.90;;;;;;8294704;28;20029;-81
2022/09/12 09:00:59;;;;;;;0.80;0.80;;;18.40;99.90;;;;;;8313803;28;20046;-82
2022/09/12 09:05:19;;;;;;;1.15;0.88;;;18.70;99.90;;;;;;8303251;28;20032;-81
2022/09/12 09:09:38;;;;;;;1.00;0.90;;;19.20;99.90;;;;;;8290210;28;20033;-79
2022/09/12 09:18:27;;;;;;;2.35;0.90;;;19.70;99.90;;;;;;8329412;22;21138;-83
2022/09/12 09:22:36;;;;;;;1.30;0.70;;;19.80;99.90;;;;;;8351244;28;20025;-82
2022/09/12 09:26:58;;;;;;;0.70;0.70;;;20.20;99.90;;;;;;8378545;28;20024;-83
2022/09/12 09:30:58;;;;;;;;;;;20.50;99.90;;;;;;8373099;28;20025;-83
2022/09/12 09:35:26;;;;;;;1.02;0.80;;;20.90;99.90;;;;;;8361318;28;19927;-83
2022/09/12 09:39:42;;;;;;;0.50;0.50;;;21.20;99.90;;;;;;8364924;28;20082;-83
2022/09/12 09:43:44;;;;;;;0.60;0.57;;;21.50;99.90;;;;;;8378412;28;20044;-83
2022/09/12 09:48:09;;;;;;;1.77;0.82;;;21.80;99.90;;;;;;8376228;28;20083;-82
2022/09/12 09:52:14;;;;;;;1.00;0.80;;;21.90;99.90;;;;;;8375680;28;20123;-83
2022/09/12 09:56:27;;;;;;;0.63;0.63;;;22.20;99.90;;;;;;8360826;28;20027;-82
2022/09/12 10:00:36;;;;;;;1.02;0.82;;;22.40;99.90;;;;;;8362036;28;20069;-83
2022/09/12 10:04:52;;;;;;;0.88;0.60;;;22.70;99.90;;;;;;8382389;28;20215;-83
2022/09/12 10:09:06;;;;;;;1.45;0.70;;;22.70;99.90;;;;;;8382032;28;20040;-82
2022/09/12 10:13:09;;;;;;;0.65;0.65;;;22.60;99.90;;;;;;8372642;28;20025;-83
2022/09/12 10:17:38;;;;;;;1.00;0.60;;;22.70;99.90;;;;;;8377626;28;20380;-82
2022/09/12 10:21:46;;;;;;;1.45;0.73;;;23.10;99.90;;;;;;8362356;28;20044;-83
2022/09/12 10:25:52;;;;;;;0.98;0.80;;;23.40;99.90;;;;;;8380696;28;20024;-83
2022/09/12 10:29:59;;;;;;;1.20;0.77;;;24.40;99.90;;;;;;8361826;28;20066;-83
2022/09/12 10:34:00;;;;;;;1.10;0.82;;;24.90;99.90;;;;;;8372078;28;20107;-83
2022/09/12 10:38:05;;;;;;;0.80;0.70;;;25.10;99.90;;;;;;8355666;28;20045;-83
2022/09/12 10:42:06;;;;;;;0.77;0.77;;;25.90;99.90;;;;;;8371594;28;20056;-83
2022/09/12 10:46:18;;;;;;;1.08;0.90;;;26.50;99.90;;;;;;8370659;28;20082;-83
2022/09/12 10:50:40;;;;;;;2.08;1.15;;;26.90;99.80;;;;;;8374554;28;20027;-83
2022/09/12 10:54:42;;;;;;;0.90;0.80;;;26.90;96.00;;;;;;8358319;28;20070;-82
2022/09/12 10:58:58;;;;;;;0.85;0.82;;;27.00;93.20;;;;;;8371936;28;20021;-83
2022/09/12 11:03:14;;;;;;;0.80;0.80;;;27.30;95.90;;;;;;8376249;28;20025;-82
2022/09/12 11:07:40;;;;;;;1.00;0.70;;;26.50;95.00;;;;;;8371292;28;20017;-82
2022/09/12 11:11:52;;;;;;;0.60;0.60;;;26.40;91.30;;;;;;8352125;28;20029;-83
2022/09/12 11:16:15;;;;;;;1.35;0.80;;;27.20;97.40;;;;;;8356454;28;20021;-83
2022/09/12 11:20:40;;;;;;;1.73;0.80;;;28.20;91.70;;;;;;8373402;28;20494;-83
2022/09/12 11:24:58;;;;;;;0.77;0.70;;;28.80;88.40;;;;;;8349612;28;20044;-83
2022/09/12 11:29:11;;;;;;;1.00;0.60;;;28.80;85.50;;;;;;8367619;28;20053;-83
2022/09/12 11:33:23;;;;;;;0.60;0.60;;;28.50;83.30;;;;;;8359854;28;20441;-84
2022/09/12 11:37:36;;;;;;;1.02;0.80;;;27.40;87.20;;;;;;8351201;28;20059;-83
2022/09/12 11:41:40;;;;;;;1.42;0.90;;;27.40;86.80;;;;;;8381559;28;20398;-83
2022/09/12 11:45:44;;;;;;;0.68;0.68;;;28.00;87.30;;;;;;8367825;28;20037;-83
2022/09/12 11:49:53;;;;;;;1.45;0.95;;;30.20;74.20;;;;;;8384217;28;20401;-83
2022/09/12 11:54:20;;;;;;;1.23;0.77;;;31.20;74.50;;;;;;8351917;28;20025;-83
2022/09/12 11:58:26;;;;;;;1.33;0.73;;;31.20;69.20;;;;;;8352073;28;20383;-83
2022/09/12 12:02:38;;;;;;;1.08;0.98;;;31.10;69.50;;;;;;8373324;28;20016;-83
2022/09/12 12:07:06;;;;;;;1.25;0.60;;;31.50;67.50;;;;;;8366354;28;20032;-83
2022/09/12 12:11:09;;;;;;;0.60;0.60;;;31.30;61.80;;;;;;8351010;28;20037;-83
2022/09/12 12:15:15;;;;;;;0.60;0.57;;;29.60;67.60;;;;;;8379147;28;20021;-83
2022/09/12 12:19:15;;;;;;;0.50;0.50;;;28.90;67.60;;;;;;8377760;28;20037;-83
2022/09/12 12:23:30;;;;;;;0.45;0.45;;;29.60;66.40;;;;;;8375065;28;20052;-83
2022/09/12 12:27:47;;;;;;;0.50;0.50;;;31.10;59.60;;;;;;8341823;28;20029;-84
2022/09/12 12:32:02;;;;;;;1.20;0.80;;;32.50;57.90;;;;;;8375767;28;20017;-83
2022/09/12 12:36:06;;;;;;;0.60;0.60;;;32.30;59.70;;;;;;8372730;28;20024;-84
2022/09/12 12:40:19;;;;;;;2.97;0.80;;;32.00;58.70;;;;;;8366953;28;20071;-84
2022/09/12 12:44:46;;;;;;;0.60;0.60;;;32.30;57.90;;;;;;8357393;28;20024;-83
2022/09/12 12:49:23;;;;;;;0.85;0.70;;;31.90;60.30;;;;;;8381190;28;20116;-82
2022/09/12 12:53:26;;;;;;;0.57;0.50;;;31.30;59.80;;;;;;8364508;28;20041;-83
2022/09/12 12:57:48;;;;;;;1.05;0.60;;;31.20;59.10;;;;;;8360249;28;20056;-83
2022/09/12 13:01:54;;;;;;;0.60;0.60;;;31.30;59.10;;;;;;8358788;28;20719;-83
2022/09/12 13:06:01;;;;;;;0.47;0.47;;;31.90;57.20;;;;;;8379659;28;20548;-83
2022/09/12 13:10:03;;;;;;;1.55;0.50;;;32.10;55.70;;;;;;8366566;28;20025;-83
2022/09/12 13:14:08;;;;;;;0.63;0.50;;;31.20;57.50;;;;;;8360315;28;20052;-83
2022/09/12 13:18:17;;;;;;;1.65;0.75;;;31.80;55.90;;;;;;8356805;28;20548;-83
2022/09/12 13:22:21;;;;;;;1.42;0.60;;;32.70;54.10;;;;;;8364074;28;20075;-83
2022/09/12 13:26:24;;;;;;;4.18;0.70;;;31.80;55.50;;;;;;8344522;28;20032;-82
2022/09/12 13:30:25;;;;;;;0.60;0.60;;;30.90;56.40;;;;;;8374529;28;20024;-82
2022/09/12 13:34:48;;;;;;;0.50;0.50;;;30.40;57.80;;;;;;8366508;28;20024;-83
2022/09/12 13:38:58;;;;;;;0.52;0.52;;;31.30;58.00;;;;;;8370779;28;20116;-83
2022/09/12 13:43:36;;;;;;;1.42;0.70;;;31.50;59.60;;;;;;8368414;28;20067;-83
2022/09/12 13:47:43;;;;;;;1.50;0.90;;;32.30;58.50;;;;;;8369634;28;20514;-83
2022/09/12 13:51:44;;;;;;;0.73;0.55;;;32.90;56.70;;;;;;8377002;28;20161;-83
2022/09/12 13:55:47;;;;;;;0.80;0.68;;;34.40;53.40;;;;;;8391970;28;20356;-83
2022/09/12 13:59:48;;;;;;;0.50;0.50;;;34.90;51.10;;;;;;8358016;28;20036;-83
2022/09/12 14:08:14;;;;;;;1.05;0.60;;;35.40;51.40;;;;;;8371964;28;20036;-83
2022/09/12 14:12:36;;;;;;;0.77;0.60;;;35.80;46.90;;;;;;8378638;28;20426;-84
2022/09/12 14:16:39;;;;;;;0.68;0.57;;;35.70;49.10;;;;;;8382596;28;20058;-83
2022/09/12 14:20:40;;;;;;;1.25;0.60;;;35.90;49.00;;;;;;8369209;28;20041;-83
2022/09/12 14:24:41;;;;;;;0.55;0.52;;;36.90;46.50;;;;;;8373625;28;20024;-83
2022/09/12 14:28:46;;;;;;;0.98;0.60;;;36.00;47.00;;;;;;8352146;28;21693;-83
2022/09/12 14:33:08;;;;;;;0.50;0.40;;;33.90;51.10;;;;;;8338842;28;20499;-83
2022/09/12 14:37:11;;;;;;;0.75;0.65;;;34.50;51.70;;;;;;8346230;28;20021;-83
2022/09/12 14:41:19;;;;;;;0.73;0.70;;;35.20;47.40;;;;;;8322503;28;20380;-84
2022/09/12 14:45:28;;;;;;;1.02;0.60;;;34.30;49.50;;;;;;8366575;28;20028;-82
2022/09/12 14:49:36;;;;;;;0.75;0.70;;;34.90;49.10;;;;;;8372133;28;20020;-84
2022/09/12 14:53:37;;;;;;;0.85;0.50;;;35.80;46.30;;;;;;8355645;28;20510;-84
2022/09/12 14:57:39;;;;;;;0.77;0.70;;;36.30;46.80;;;;;;8351353;28;20033;-84
2022/09/12 15:01:39;;;;;;;0.75;0.50;;;36.90;44.80;;;;;;8354330;28;20048;-83
2022/09/12 15:05:49;;;;;;;1.27;0.52;;;34.00;50.00;;;;;;8352320;28;20032;-84
2022/09/12 15:09:49;;;;;;;1.75;0.70;;;30.40;53.90;;;;;;8366875;28;20040;-84
2022/09/12 15:13:50;;;;;;;0.88;0.60;;;27.30;62.10;;;;;;8360510;28;20025;-84
2022/09/12 15:17:51;;;;;;;0.70;0.70;;;25.30;68.90;;;;;;8360505;28;20082;-86
2022/09/12 15:21:51;;;;;;;2.20;0.70;;;24.30;74.60;;;;;;8304885;22;20091;-92
2022/09/12 15:25:52;;;;;;;0.80;0.80;;;23.50;81.30;;;;;;8309200;28;20465;-94
2022/09/12 15:38:54;;;;;;;2.85;0.70;;;22.50;84.70;;;;;;8296604;28;20602;-88
2022/09/12 15:42:55;;;;;;;1.90;0.80;;;22.50;87.30;;;;;;8300195;28;20018;-88
2022/09/12 15:46:55;;;;;;;1.38;0.80;;;25.20;86.30;;;;;;8310722;28;20013;-87
2022/09/12 15:51:00;;;;;;;2.25;0.70;;;26.70;84.50;;;;;;8315966;28;20022;-87
2022/09/12 15:55:01;;;;;;;1.67;0.70;;;26.80;74.90;;;;;;8307145;28;20058;-87
2022/09/12 15:59:01;;;;;;;0.80;0.77;;;25.70;81.20;;;;;;8320332;28;20033;-87
2022/09/12 16:03:02;;;;;;;5.78;1.00;;;24.60;84.90;;;;;;8302491;28;20048;-88
2022/09/12 16:07:03;;;;;;;1.00;0.77;;;23.50;87.70;;;;;;8286200;28;20038;-87
2022/09/12 16:11:11;;;;;;;0.80;0.80;;;23.00;89.60;;;;;;8302487;28;20032;-87
2022/09/12 16:15:14;;;;;;;2.55;0.88;;;22.60;91.70;;;;;;8306471;28;20049;-88
2022/09/12 16:19:15;;;;;;;1.30;0.80;;;21.90;94.00;;;;;;8322879;28;20060;-87
2022/09/12 16:23:15;;;;;;;1.67;0.70;;;21.40;94.80;;;;;;8317985;28;20040;-87
2022/09/12 16:27:16;;;;;;;1.10;0.88;;;21.00;97.10;;;;;;8314549;28;20068;-88
2022/09/12 16:31:17;;;;;;;0.80;0.80;;;20.70;98.40;;;;;;8302535;28;20021;-86
2022/09/12 16:35:17;;;;;;;2.38;0.85;;;20.40;99.90;;;;;;8305399;28;20029;-88
2022/09/12 16:39:18;;;;;;;2.05;1.02;;;20.00;99.90;;;;;;8321700;28;20021;-88
2022/09/12 16:43:19;;;;;;;1.95;1.35;;;19.80;99.90;;;;;;8314107;28;20095;-88
2022/09/12 16:47:19;;;;;;;1.85;0.80;;;19.60;99.90;;;;;;8300365;28;20017;-87
2022/09/12 16:51:23;;;;;;;0.73;0.70;;;19.50;99.90;;;;;;8316256;28;20055;-88
2022/09/12 16:55:24;;;;;;;1.15;0.90;;;19.30;99.90;;;;;;8289952;28;20026;-88
2022/09/12 16:59:24;;;;;;;3.05;0.93;;;19.10;99.90;;;;;;8297083;28;20041;-87
2022/09/12 17:03:25;;;;;;;1.30;1.00;;;18.80;99.90;;;;;;8296090;28;20061;-87
2022/09/12 17:07:25;;;;;;;3.75;1.13;;;18.60;99.90;;;;;;8304938;28;20083;-87
2022/09/12 17:11:29;;;;;;;12.73;1.55;;;18.30;99.90;;;;;;8285458;28;20023;-89
2022/09/12 17:15:30;;;;;;;3.05;1.10;;;18.30;99.90;;;;;;8322734;28;20365;-88
2022/09/12 17:19:31;;;;;;;2.63;1.23;;;18.10;99.90;;;;;;8312173;28;20057;-88
2022/09/12 17:23:32;;;;;;;2.15;1.15;;;17.70;99.90;;;;;;8300282;28;20032;-87
2022/09/12 17:27:33;;;;;;;1.90;1.10;;;17.40;99.90;;;;;;8291461;28;20048;-87
2022/09/12 17:31:34;;;;;;;1.25;1.02;;;17.40;99.90;;;;;;8306230;28;20037;-88
2022/09/12 17:35:35;;;;;;;5.28;1.00;;;17.20;99.90;;;;;;8325692;28;20039;-88
2022/09/12 17:39:36;;;;;;;1.40;1.02;;;17.30;99.90;;;;;;8304241;28;20060;-88
2022/09/12 17:43:36;;;;;;;3.45;1.52;;;17.10;99.90;;;;;;8296500;28;20462;-86
2022/09/12 17:47:38;;;;;;;166.48;25.48;;;16.60;99.90;;;;;;8301218;28;20034;-87
2022/09/12 17:51:39;;;;;;;3.70;1.20;;;16.20;99.90;;;;;;8312529;28;20029;-88
2022/09/12 17:55:40;;;;;;;2.53;1.17;;;16.00;99.90;;;;;;8302977;28;20049;-88
2022/09/12 17:59:41;;;;;;;2.08;0.98;;;15.90;99.90;;;;;;8295085;28;20101;-86
2022/09/12 18:03:41;;;;;;;2.35;1.30;;;15.80;99.90;;;;;;8289051;28;20026;-88
2022/09/12 18:07:42;;;;;;;1.30;1.13;;;15.60;99.90;;;;;;8305190;28;20025;-87
2022/09/12 18:11:43;;;;;;;2.33;1.70;;;15.40;99.90;;;;;;8291739;28;20280;-88
2022/09/12 18:15:44;;;;;;;2.17;1.60;;;15.30;99.90;;;;;;8297085;28;20422;-88
2022/09/12 18:19:47;;;;;;;2.00;1.42;;;15.30;99.90;;;;;;8287136;28;20120;-87
2022/09/12 18:23:47;;;;;;;1.85;1.17;;;15.20;99.90;;;;;;8307403;28;20025;-87
2022/09/12 18:27:48;;;;;;;3.90;1.35;;;15.00;99.90;;;;;;8287856;28;20484;-87
2022/09/12 18:31:49;;;;;;;2.22;1.30;;;14.90;99.90;;;;;;8294743;28;20100;-88
2022/09/12 18:35:50;;;;;;;1.73;1.30;;;14.60;99.90;;;;;;8287032;28;20022;-88
2022/09/12 18:39:50;;;;;;;1.88;1.30;;;14.30;99.90;;;;;;8287165;28;20407;-87
2022/09/12 18:43:55;;;;;;;1.95;1.35;;;14.10;99.90;;;;;;8280163;28;20046;-86
2022/09/12 18:47:56;;;;;;;23.70;5.97;;;14.10;99.90;;;;;;8279671;28;20507;-89
2022/09/12 18:51:57;;;;;;;2.15;1.60;;;13.90;99.90;;;;;;8282680;28;20180;-77
2022/09/12 18:56:07;;;;;;;2.05;1.48;;;13.50;99.90;;;;;;8278701;28;20026;-79
2022/09/12 19:00:08;;;;;;;1.70;1.40;;;13.30;99.90;;;;;;8290526;28;20028;-80
2022/09/12 19:04:10;;;;;;;2.35;1.48;;;13.10;99.90;;;;;;8280947;28;20123;-80
2022/09/12 19:08:11;;;;;;;1.38;1.25;;;13.10;99.90;;;;;;8274023;28;20103;-79
2022/09/12 19:12:11;;;;;;;2.53;1.50;;;13.10;99.90;;;;;;8304083;28;20045;-79
2022/09/12 19:16:16;;;;;;;3.88;1.55;;;13.10;99.90;;;;;;8295147;28;20068;-80
2022/09/12 19:20:17;;;;;;;2.65;1.40;;;13.20;99.90;;;;;;8299571;28;20084;-81
2022/09/12 19:24:17;;;;;;;2.75;1.50;;;13.10;99.90;;;;;;8282785;28;20030;-80
2022/09/12 19:28:18;;;;;;;2.35;1.67;;;13.10;99.90;;;;;;8302168;28;20034;-79
2022/09/12 19:32:18;;;;;;;3.70;1.60;;;13.00;99.90;;;;;;8285883;28;20042;-79
2022/09/12 19:36:20;;;;;;;1.88;1.55;;;12.80;99.90;;;;;;8280357;28;20612;-78
2022/09/12 19:40:21;;;;;;;2.15;1.77;;;12.80;99.90;;;;;;8299196;28;20079;-78
2022/09/12 19:44:22;;;;;;;2.38;1.58;;;12.60;99.90;;;;;;8296171;28;20029;-80
2022/09/12 19:48:23;;;;;;;1.85;1.45;;;12.60;99.90;;;;;;8291178;28;20025;-78
2022/09/12 19:52:23;;;;;;;1.77;1.67;;;12.50;99.90;;;;;;8293706;28;20026;-79
2022/09/12 19:56:24;;;;;;;3.78;1.80;;;12.50;99.90;;;;;;8293720;28;20615;-80
2022/09/12 20:00:25;;;;;;;2.15;1.92;;;12.10;99.90;;;;;;8277577;28;20061;-79
2022/09/12 20:04:26;;;;;;;3.00;1.85;;;12.00;99.90;;;;;;8302271;28;20423;-80
2022/09/12 20:08:26;;;;;;;2.15;1.73;;;12.00;99.90;;;;;;8285243;28;20025;-81
2022/09/12 20:12:27;;;;;;;2.38;1.90;;;11.90;99.90;;;;;;8289808;28;20491;-80
2022/09/12 20:16:28;;;;;;;2.45;2.03;;;11.80;99.90;;;;;;8303388;28;20022;-79
2022/09/12 20:20:29;;;;;;;4.07;2.30;;;11.80;99.90;;;;;;8291898;28;20037;-81
2022/09/12 20:24:30;;;;;;;3.35;2.05;;;11.80;99.90;;;;;;8298817;28;20518;-80
2022/09/12 20:28:31;;;;;;;2.80;2.20;;;11.90;99.90;;;;;;8293393;28;20025;-81
2022/09/12 20:32:31;;;;;;;4.18;2.40;;;11.70;99.90;;;;;;8303656;28;20028;-78
2022/09/12 20:36:32;;;;;;;5.45;2.15;;;11.50;99.90;;;;;;8298595;28;20552;-80
2022/09/12 20:40:33;;;;;;;4.07;2.10;;;11.60;99.90;;;;;;8301042;28;20033;-80
2022/09/12 20:44:33;;;;;;;2.95;2.03;;;11.40;99.90;;;;;;8294792;28;20034;-81
2022/09/12 20:48:35;;;;;;;3.25;2.15;;;11.20;99.90;;;;;;8299134;28;20400;-80
2022/09/12 20:52:35;;;;;;;3.33;2.05;;;11.30;99.90;;;;;;8296722;28;20102;-80
2022/09/12 20:56:36;;;;;;;2.60;2.10;;;11.30;99.90;;;;;;8306133;28;20021;-81
2022/09/12 21:00:37;;;;;;;4.53;2.30;;;11.00;99.90;;;;;;8313577;28;20399;-79
2022/09/12 21:04:37;;;;;;;3.10;2.58;;;11.20;99.90;;;;;;8294744;28;20487;-81
2022/09/12 21:08:38;;;;;;;3.13;2.58;;;11.30;99.90;;;;;;8294457;28;20063;-81
2022/09/12 21:12:39;;;;;;;4.88;2.45;;;11.30;99.90;;;;;;8310250;28;20030;-80
2022/09/12 21:16:39;;;;;;;4.82;2.90;;;11.00;99.90;;;;;;8294030;28;20072;-81
2022/09/12 21:20:40;;;;;;;6.47;2.72;;;10.90;99.90;;;;;;8335324;22;20095;-92
2022/09/12 21:24:40;;;;;;;3.30;2.60;;;10.80;99.90;;;;;;8306620;28;20446;-91
2022/09/12 21:28:41;;;;;;;4.13;2.40;;;10.50;99.90;;;;;;8308963;28;20506;-92
2022/09/12 21:32:41;;;;;;;3.03;2.30;;;10.50;99.90;;;;;;8304696;28;20025;-91
2022/09/12 21:36:42;;;;;;;3.55;2.33;;;10.50;99.90;;;;;;8304152;28;20542;-92
2022/09/12 21:40:43;;;;;;;4.00;2.30;;;10.50;99.90;;;;;;8312146;28;20056;-91